Aviation Digital Data Service (ADDS)

Output produced by METARs form (2224 UTC 20 October 2018)
found at http://www.aviationweather.gov/metar/data/
 
GCLP 202200Z 26004KT 190V290 9999 FEW045 20/15 Q1016 NOSIG
TAF GCLP 202000Z 2021/2121 28006KT 9999 SCT035 TX25/2114Z TN19/2105Z 
     BECMG 2109/2111 17010KT 
     PROB30 
     TEMPO 2112/2118 RA 
     BECMG 2118/2120 30006KT
       
EGTE 202220Z 00000KT CAVOK 07/07 Q1031
TAF EGTE 202001Z 2021/2103 VRB03KT CAVOK 
     TEMPO 2021/2024 2000 BR MIFG 
     BECMG 2100/2103 0300 FG VV///
       
EGGD 202220Z AUTO 24004KT 9999 NCD 11/11 Q1030
TAF AMD EGGD 202037Z 2020/2118 26008KT 9999 FEW020 
     TEMPO 2020/2024 9000 
     TEMPO 2100/2106 3000 BR MIFG 
     PROB30 2106/2110 0200 FG BKN001 
     PROB40 2110/2112 9000 
     TEMPO 2115/2118 7000 -RA BKN012 
     PROB40 
     TEMPO 2116/2118 BKN004